Time;durP1;ratioP1;P1;durP2;ratioP2;P2;SDS_P1;SDS_P2;PMS_P1;PMS_P2;Temp;Humidity;BMP_temperature;BMP_pressure;BME280_temperature;BME280_humidity;BME280_pressure;Samples;Min_cycle;Max_cycle;Signal;HPM_P1;HPM_P2
2021/06/18 00:02:29;;;;;;;3.75;2.55;;;;;;;;;;5126098;27;20388;-67
2021/06/18 00:07:15;;;;;;;7.55;3.13;;;;;;;;;;5126494;27;20711;-68
2021/06/18 00:12:59;;;;;;;8.52;3.00;;;;;;;;;;5126246;27;20381;-68
2021/06/18 00:15:26;;;;;;;6.50;3.20;;;;;;;;;;5110519;28;20035;-68
2021/06/18 00:17:52;;;;;;;4.10;2.80;;;;;;;;;;5108613;28;20020;-68
2021/06/18 00:20:19;;;;;;;4.88;2.72;;;;;;;;;;5109087;28;20066;-67
2021/06/18 00:22:45;;;;;;;6.75;3.00;;;;;;;;;;5109285;28;20480;-67
2021/06/18 00:25:12;;;;;;;4.82;2.90;;;;;;;;;;5110133;28;20024;-67
2021/06/18 00:27:38;;;;;;;6.25;2.70;;;;;;;;;;5110293;28;20032;-68
2021/06/18 00:30:06;;;;;;;6.28;3.08;;;;;;;;;;5110216;28;20031;-68
2021/06/18 00:34:48;;;;;;;5.32;3.00;;;;;;;;;;5126886;27;20388;-67
2021/06/18 00:37:14;;;;;;;7.55;3.17;;;;;;;;;;5110558;28;20056;-68
2021/06/18 00:39:50;;;;;;;6.05;2.97;;;;;;;;;;5126471;27;20400;-68
2021/06/18 00:44:44;;;;;;;4.95;3.38;;;;;;;;;;5126192;27;20392;-68
2021/06/18 00:51:12;;;;;;;5.47;3.35;;;;;;;;;;5126336;27;20384;-68
2021/06/18 00:53:40;;;;;;;6.90;3.38;;;;;;;;;;5110158;28;20028;-67
2021/06/18 01:00:15;;;;;;;4.70;3.55;;;;;;;;;;5125887;27;20380;-67
2021/06/18 01:04:51;;;;;;;4.20;2.50;;;;;;;;;;5126479;27;20864;-67
2021/06/18 01:07:18;;;;;;;5.72;3.30;;;;;;;;;;5108816;28;20028;-67
2021/06/18 01:09:54;;;;;;;4.35;3.17;;;;;;;;;;5110378;28;20019;-67
2021/06/18 01:13:03;;;;;;;7.60;3.78;;;;;;;;;;5125941;27;20809;-67
2021/06/18 01:16:16;;;;;;;5.63;3.30;;;;;;;;;;5126345;27;20861;-67
2021/06/18 01:21:42;;;;;;;6.28;3.22;;;;;;;;;;5125863;27;20388;-67
2021/06/18 01:24:23;;;;;;;4.50;2.40;;;;;;;;;;5110566;28;20110;-67
2021/06/18 01:27:10;;;;;;;6.20;2.90;;;;;;;;;;5110027;28;20018;-67
2021/06/18 01:29:38;;;;;;;5.03;3.00;;;;;;;;;;5108918;28;20476;-67
2021/06/18 01:32:06;;;;;;;5.10;2.63;;;;;;;;;;5108874;28;20024;-67
2021/06/18 01:34:33;;;;;;;5.68;2.78;;;;;;;;;;5109817;28;20016;-68
2021/06/18 01:37:03;;;;;;;5.55;2.80;;;;;;;;;;5110173;28;20042;-67
2021/06/18 01:40:36;;;;;;;8.07;3.67;;;;;;;;;;5126265;27;20385;-67
2021/06/18 01:46:52;;;;;;;7.78;4.32;;;;;;;;;;5126364;27;20129;-67
2021/06/18 01:49:19;;;;;;;8.43;3.70;;;;;;;;;;5110037;28;20031;-67
2021/06/18 01:51:46;;;;;;;4.30;2.88;;;;;;;;;;5109090;28;20103;-67
2021/06/18 01:54:13;;;;;;;6.88;3.45;;;;;;;;;;5110390;28;20030;-68
2021/06/18 01:58:44;;;;;;;3.60;2.47;;;;;;;;;;5126269;27;20373;-67
2021/06/18 02:01:10;;;;;;;5.40;2.88;;;;;;;;;;5110539;28;20034;-67
2021/06/18 02:03:37;;;;;;;5.68;2.97;;;;;;;;;;5110210;28;20069;-67
2021/06/18 02:08:13;;;;;;;9.00;3.45;;;;;;;;;;5126381;27;20139;-67
2021/06/18 02:11:48;;;;;;;8.32;2.83;;;;;;;;;;5126318;27;20388;-67
2021/06/18 02:14:23;;;;;;;8.35;2.90;;;;;;;;;;5126261;27;20381;-67
2021/06/18 02:16:52;;;;;;;8.68;3.20;;;;;;;;;;5110054;28;20024;-67
2021/06/18 02:19:18;;;;;;;4.00;2.58;;;;;;;;;;5109028;28;20020;-67
2021/06/18 02:22:24;;;;;;;6.43;3.45;;;;;;;;;;5126488;27;20388;-67
2021/06/18 02:24:51;;;;;;;5.32;3.45;;;;;;;;;;5110277;28;20024;-67
2021/06/18 02:27:18;;;;;;;6.07;2.80;;;;;;;;;;5110440;28;20356;-67
2021/06/18 02:29:45;;;;;;;6.25;2.80;;;;;;;;;;5109130;28;20521;-67
2021/06/18 02:34:50;;;;;;;7.38;2.88;;;;;;;;;;5126410;27;20389;-67
2021/06/18 02:37:26;;;;;;;5.85;2.80;;;;;;;;;;5125986;27;20378;-68
2021/06/18 02:39:52;;;;;;;4.78;2.70;;;;;;;;;;5110481;28;20024;-69
2021/06/18 02:42:19;;;;;;;5.78;3.42;;;;;;;;;;5109242;28;20119;-68
2021/06/18 02:44:45;;;;;;;5.80;3.42;;;;;;;;;;5108925;28;20024;-68
2021/06/18 02:49:00;;;;;;;5.22;3.05;;;;;;;;;;5126230;27;20867;-68
2021/06/18 02:51:38;;;;;;;5.03;3.45;;;;;;;;;;5110116;28;20039;-68
2021/06/18 02:54:11;;;;;;;7.03;3.58;;;;;;;;;;5110404;28;20028;-68
2021/06/18 02:59:36;;;;;;;3.78;2.35;;;;;;;;;;5125885;27;20381;-69
2021/06/18 03:04:54;;;;;;;5.90;4.25;;;;;;;;;;5126495;27;20381;-67
2021/06/18 03:07:24;;;;;;;6.35;2.65;;;;;;;;;;5110208;28;20102;-67
2021/06/18 03:09:51;;;;;;;4.63;2.83;;;;;;;;;;5110508;28;20020;-67
2021/06/18 03:13:35;;;;;;;4.30;2.47;;;;;;;;;;5125992;27;20381;-67
2021/06/18 03:16:02;;;;;;;2.60;1.92;;;;;;;;;;5110447;28;20115;-67
2021/06/18 03:18:29;;;;;;;4.25;2.53;;;;;;;;;;5110342;28;20020;-67
2021/06/18 03:20:57;;;;;;;4.63;2.33;;;;;;;;;;5110061;28;20099;-67
2021/06/18 03:24:28;;;;;;;7.55;4.03;;;;;;;;;;5126600;27;20738;-67
2021/06/18 03:26:55;;;;;;;7.35;3.22;;;;;;;;;;5110209;28;20027;-68
2021/06/18 03:29:21;;;;;;;6.38;3.22;;;;;;;;;;5110460;28;20691;-67
2021/06/18 03:33:11;;;;;;;4.25;2.70;;;;;;;;;;5125930;27;20745;-68
2021/06/18 03:35:38;;;;;;;7.00;3.50;;;;;;;;;;5110835;28;20031;-67
2021/06/18 03:38:04;;;;;;;4.65;2.90;;;;;;;;;;5110461;28;20379;-68
2021/06/18 03:40:31;;;;;;;6.18;3.78;;;;;;;;;;5108777;28;20777;-68
2021/06/18 03:44:09;;;;;;;5.60;3.03;;;;;;;;;;5126478;27;20384;-68
2021/06/18 03:50:57;;;;;;;4.32;2.45;;;;;;;;;;5126347;27;20380;-67
2021/06/18 03:53:23;;;;;;;3.72;2.83;;;;;;;;;;5110523;28;20464;-68
2021/06/18 03:55:49;;;;;;;6.40;3.25;;;;;;;;;;5108756;28;20020;-68
2021/06/18 03:58:22;;;;;;;4.55;2.97;;;;;;;;;;5109047;28;20106;-68
2021/06/18 04:00:49;;;;;;;6.88;2.85;;;;;;;;;;5110415;28;20099;-68
2021/06/18 04:03:16;;;;;;;5.05;3.05;;;;;;;;;;5110003;28;20028;-67
2021/06/18 04:05:44;;;;;;;5.18;3.33;;;;;;;;;;5110470;28;20032;-67
2021/06/18 04:08:22;;;;;;;5.28;2.83;;;;;;;;;;5126261;27;20373;-68
2021/06/18 04:10:49;;;;;;;4.10;2.28;;;;;;;;;;5109070;28;20111;-68
2021/06/18 04:14:15;;;;;;;3.97;2.72;;;;;;;;;;5126316;27;20392;-68
2021/06/18 04:16:41;;;;;;;5.65;2.35;;;;;;;;;;5108754;28;20028;-67
2021/06/18 04:19:08;;;;;;;8.65;2.67;;;;;;;;;;5110465;28;20028;-67
2021/06/18 04:23:12;;;;;;;5.00;3.10;;;;;;;;;;5071971;28;20469;-67
2021/06/18 04:25:38;;;;;;;8.98;2.80;;;;;;;;;;5090268;28;20377;-68
2021/06/18 04:28:06;;;;;;;6.70;2.50;;;;;;;;;;5090080;28;20025;-68
2021/06/18 04:30:32;;;;;;;7.03;2.70;;;;;;;;;;5089649;28;20025;-68
2021/06/18 04:35:47;;;;;;;3.95;2.60;;;;;;;;;;5126385;27;20373;-68
2021/06/18 04:44:08;;;;;;;8.20;3.47;;;;;;;;;;5126266;27;20884;-68
2021/06/18 04:46:34;;;;;;;5.68;3.20;;;;;;;;;;5109299;28;20024;-67
2021/06/18 04:49:01;;;;;;;5.85;3.00;;;;;;;;;;5110428;28;20067;-67
2021/06/18 04:51:27;;;;;;;6.15;2.70;;;;;;;;;;5110004;28;20145;-67
2021/06/18 04:54:11;;;;;;;5.93;3.50;;;;;;;;;;5126387;27;20737;-68
2021/06/18 04:57:48;;;;;;;7.75;3.17;;;;;;;;;;5125912;27;20742;-68
2021/06/18 05:00:16;;;;;;;7.65;3.50;;;;;;;;;;5110468;28;20054;-67
2021/06/18 05:02:43;;;;;;;5.03;3.10;;;;;;;;;;5109198;28;20016;-67
2021/06/18 05:05:09;;;;;;;5.43;3.08;;;;;;;;;;5110216;28;20615;-68
2021/06/18 05:07:35;;;;;;;5.75;3.40;;;;;;;;;;5110329;28;20110;-67
2021/06/18 05:10:02;;;;;;;3.95;2.58;;;;;;;;;;5110237;28;20024;-68
2021/06/18 05:12:28;;;;;;;5.28;2.80;;;;;;;;;;5109847;28;20024;-68
2021/06/18 05:14:54;;;;;;;5.72;2.53;;;;;;;;;;5110158;28;20022;-67
2021/06/18 05:18:43;;;;;;;5.28;3.00;;;;;;;;;;5125923;27;20912;-68
2021/06/18 05:21:09;;;;;;;6.80;4.40;;;;;;;;;;5109132;28;20498;-68
2021/06/18 05:23:35;;;;;;;6.00;3.28;;;;;;;;;;5110641;28;20041;-68
2021/06/18 05:26:01;;;;;;;4.40;3.22;;;;;;;;;;5110198;28;20028;-68
2021/06/18 05:28:28;;;;;;;5.15;3.25;;;;;;;;;;5108957;28;20027;-68
2021/06/18 05:32:39;;;;;;;5.68;3.05;;;;;;;;;;5126242;27;20375;-68
2021/06/18 05:36:13;;;;;;;4.13;2.70;;;;;;;;;;5126192;27;20380;-68
2021/06/18 05:38:39;;;;;;;6.22;3.60;;;;;;;;;;5109136;28;20488;-68
2021/06/18 05:41:45;;;;;;;4.90;3.28;;;;;;;;;;5125862;27;20386;-68
2021/06/18 05:44:52;;;;;;;7.07;4.00;;;;;;;;;;5126531;27;20377;-68
2021/06/18 05:47:18;;;;;;;6.82;3.83;;;;;;;;;;5110008;28;20031;-68
2021/06/18 05:49:44;;;;;;;4.55;2.65;;;;;;;;;;5110368;28;20045;-67
2021/06/18 05:52:11;;;;;;;3.97;2.88;;;;;;;;;;5110684;28;20026;-68
2021/06/18 05:54:37;;;;;;;6.55;3.05;;;;;;;;;;5109921;28;20399;-68
2021/06/18 05:57:03;;;;;;;3.47;2.42;;;;;;;;;;5109066;28;20097;-68
2021/06/18 06:01:22;;;;;;;4.45;2.90;;;;;;;;;;5126122;27;20381;-69
2021/06/18 06:03:49;;;;;;;3.47;2.20;;;;;;;;;;5110636;28;20024;-68
2021/06/18 06:06:15;;;;;;;5.13;2.92;;;;;;;;;;5110240;28;20529;-69
2021/06/18 06:08:41;;;;;;;3.35;2.33;;;;;;;;;;5110066;28;20050;-69
2021/06/18 06:11:07;;;;;;;4.85;2.83;;;;;;;;;;5110256;28;20028;-69
2021/06/18 06:13:33;;;;;;;5.18;2.85;;;;;;;;;;5110317;28;20036;-69
2021/06/18 06:17:13;;;;;;;5.00;3.30;;;;;;;;;;5125874;27;20380;-69
2021/06/18 06:20:33;;;;;;;6.05;3.25;;;;;;;;;;5126597;27;20876;-69
2021/06/18 06:22:59;;;;;;;8.00;3.28;;;;;;;;;;5110233;28;20039;-69
2021/06/18 06:25:46;;;;;;;6.05;3.33;;;;;;;;;;5126383;27;20384;-69
2021/06/18 06:28:12;;;;;;;5.15;3.05;;;;;;;;;;5109235;28;20024;-68
2021/06/18 06:30:38;;;;;;;6.45;3.67;;;;;;;;;;5108798;28;20069;-68
2021/06/18 06:33:37;;;;;;;5.03;3.28;;;;;;;;;;5126328;27;20373;-68
2021/06/18 06:36:04;;;;;;;6.15;3.08;;;;;;;;;;5110087;28;20020;-67
2021/06/18 06:38:30;;;;;;;9.15;3.47;;;;;;;;;;5110439;28;20024;-68
2021/06/18 06:40:57;;;;;;;6.75;3.50;;;;;;;;;;5110584;28;20095;-68
2021/06/18 06:43:23;;;;;;;5.97;3.90;;;;;;;;;;5108790;28;20038;-68
2021/06/18 06:45:49;;;;;;;7.72;4.22;;;;;;;;;;5108978;28;20550;-68
2021/06/18 06:48:15;;;;;;;5.03;2.83;;;;;;;;;;5110287;28;20494;-68
2021/06/18 06:50:42;;;;;;;6.22;3.42;;;;;;;;;;5109734;28;20020;-69
2021/06/18 06:53:08;;;;;;;5.25;3.42;;;;;;;;;;5108774;28;20051;-68
2021/06/18 06:55:35;;;;;;;8.45;3.45;;;;;;;;;;5108765;28;20024;-68
2021/06/18 06:58:01;;;;;;;697.53;620.97;;;;;;;;;;5109644;28;20591;-68
2021/06/18 07:00:27;;;;;;;4.80;2.83;;;;;;;;;;5108852;28;20381;-68
2021/06/18 07:03:40;;;;;;;4.07;3.00;;;;;;;;;;5126013;27;20400;-68
2021/06/18 07:06:07;;;;;;;5.00;3.17;;;;;;;;;;5108720;28;20036;-68
2021/06/18 07:09:38;;;;;;;8.13;3.67;;;;;;;;;;5126005;27;20733;-68
2021/06/18 07:13:27;;;;;;;6.25;3.80;;;;;;;;;;5125896;27;20384;-68
2021/06/18 07:15:54;;;;;;;8.13;3.50;;;;;;;;;;5110539;28;20399;-68
2021/06/18 07:18:20;;;;;;;8.00;5.25;;;;;;;;;;5110169;28;20031;-68
2021/06/18 07:20:46;;;;;;;6.60;4.00;;;;;;;;;;5110314;28;20031;-68
2021/06/18 07:23:13;;;;;;;7.50;4.78;;;;;;;;;;5109096;28;20042;-68
2021/06/18 07:25:39;;;;;;;6.80;4.03;;;;;;;;;;5109858;28;20430;-69
2021/06/18 07:29:09;;;;;;;6.50;3.85;;;;;;;;;;5092438;28;20112;-69
2021/06/18 07:31:35;;;;;;;8.52;5.60;;;;;;;;;;5110484;28;20028;-69
2021/06/18 07:34:03;;;;;;;11.95;5.00;;;;;;;;;;5109981;28;20043;-68
2021/06/18 07:36:30;;;;;;;7.82;4.38;;;;;;;;;;5110461;28;20337;-69
2021/06/18 07:38:56;;;;;;;263.15;239.52;;;;;;;;;;5110449;28;20050;-69
2021/06/18 07:41:22;;;;;;;9.63;4.70;;;;;;;;;;5109853;28;20022;-69
2021/06/18 07:43:48;;;;;;;9.65;4.90;;;;;;;;;;5110207;28;20058;-69
2021/06/18 07:46:14;;;;;;;8.27;4.28;;;;;;;;;;5091803;28;20051;-69
2021/06/18 07:48:41;;;;;;;8.95;4.78;;;;;;;;;;5109670;28;20040;-70
2021/06/18 07:51:08;;;;;;;7.95;4.80;;;;;;;;;;5110043;28;20020;-70
2021/06/18 07:53:34;;;;;;;9.88;5.40;;;;;;;;;;5091578;28;20092;-71
2021/06/18 07:56:00;;;;;;;9.75;4.70;;;;;;;;;;5091838;28;20028;-70
2021/06/18 07:58:27;;;;;;;5.13;4.03;;;;;;;;;;5110081;28;20023;-69
2021/06/18 08:00:53;;;;;;;6.82;4.00;;;;;;;;;;5109485;28;20020;-69
2021/06/18 08:04:25;;;;;;;8.50;4.47;;;;;;;;;;5126240;27;20381;-70
2021/06/18 08:06:51;;;;;;;7.72;4.50;;;;;;;;;;5110313;28;20127;-70
2021/06/18 08:09:17;;;;;;;6.47;3.90;;;;;;;;;;5110049;28;20016;-69
2021/06/18 08:11:44;;;;;;;6.07;3.78;;;;;;;;;;5109183;28;20046;-70
2021/06/18 08:14:10;;;;;;;6.40;3.95;;;;;;;;;;5110399;28;20052;-69
2021/06/18 08:16:36;;;;;;;5.88;4.18;;;;;;;;;;5110093;28;20020;-69
2021/06/18 08:19:02;;;;;;;7.05;4.75;;;;;;;;;;5109020;28;20442;-69
2021/06/18 08:21:28;;;;;;;7.20;4.05;;;;;;;;;;5109900;28;20020;-69
2021/06/18 08:23:55;;;;;;;8.40;4.60;;;;;;;;;;5108796;28;20044;-69
2021/06/18 08:26:21;;;;;;;7.13;3.83;;;;;;;;;;5110009;28;20022;-69
2021/06/18 08:28:48;;;;;;;11.93;4.05;;;;;;;;;;5109616;28;20024;-69
2021/06/18 08:31:14;;;;;;;6.03;4.35;;;;;;;;;;5110021;28;20034;-69
2021/06/18 08:33:40;;;;;;;6.15;4.00;;;;;;;;;;5110055;28;20024;-69
2021/06/18 08:36:07;;;;;;;7.80;3.90;;;;;;;;;;5109747;28;20478;-69
2021/06/18 08:38:34;;;;;;;6.68;3.88;;;;;;;;;;5109895;28;20047;-69
2021/06/18 08:41:02;;;;;;;7.00;4.00;;;;;;;;;;5109916;28;20491;-69
2021/06/18 08:43:28;;;;;;;8.68;4.72;;;;;;;;;;5109228;28;20039;-69
2021/06/18 08:45:54;;;;;;;14.52;9.60;;;;;;;;;;5109739;28;20024;-70
2021/06/18 08:49:56;;;;;;;9.48;4.75;;;;;;;;;;5125978;27;21015;-69
2021/06/18 08:52:22;;;;;;;7.72;4.15;;;;;;;;;;5110397;28;20518;-69
2021/06/18 08:54:50;;;;;;;6.68;3.88;;;;;;;;;;5110504;28;20048;-69
2021/06/18 08:57:18;;;;;;;6.88;3.45;;;;;;;;;;5110090;28;20437;-69
2021/06/18 08:59:45;;;;;;;6.60;3.97;;;;;;;;;;5109029;28;20028;-69
2021/06/18 09:02:11;;;;;;;9.38;3.65;;;;;;;;;;5108923;28;20532;-69
2021/06/18 09:05:11;;;;;;;6.70;3.92;;;;;;;;;;5109831;28;20050;-68
2021/06/18 09:07:53;;;;;;;6.38;3.92;;;;;;;;;;5108072;28;20056;-69
2021/06/18 09:10:29;;;;;;;7.07;4.20;;;;;;;;;;5110095;28;20395;-69
2021/06/18 09:13:10;;;;;;;11.30;4.18;;;;;;;;;;5108395;28;20115;-69
2021/06/18 09:15:37;;;;;;;7.35;3.88;;;;;;;;;;5110275;28;20095;-70
2021/06/18 09:18:26;;;;;;;6.15;3.70;;;;;;;;;;5109603;28;20547;-69
2021/06/18 09:20:55;;;;;;;5.88;3.33;;;;;;;;;;5109363;28;20078;-69
2021/06/18 09:23:29;;;;;;;7.03;4.13;;;;;;;;;;5109709;28;20480;-69
2021/06/18 09:26:14;;;;;;;8.07;4.18;;;;;;;;;;5109310;28;20039;-69
2021/06/18 09:28:58;;;;;;;10.35;4.63;;;;;;;;;;5109663;28;20176;-69
2021/06/18 09:31:28;;;;;;;7.55;3.72;;;;;;;;;;5109794;28;20376;-70
2021/06/18 09:33:55;;;;;;;8.70;4.35;;;;;;;;;;5109444;28;20088;-69
2021/06/18 09:36:21;;;;;;;7.25;4.03;;;;;;;;;;5109910;28;20031;-69
2021/06/18 09:38:50;;;;;;;5.65;4.00;;;;;;;;;;5109555;28;20042;-69
2021/06/18 09:41:29;;;;;;;4.55;3.30;;;;;;;;;;5109515;28;20016;-69
2021/06/18 09:44:04;;;;;;;6.22;3.85;;;;;;;;;;5108182;28;20476;-69
2021/06/18 09:46:40;;;;;;;6.65;3.67;;;;;;;;;;5109089;28;20461;-69
2021/06/18 09:49:06;;;;;;;5.85;3.50;;;;;;;;;;5107997;28;20093;-70
2021/06/18 09:51:32;;;;;;;6.75;3.63;;;;;;;;;;5108123;28;20103;-68
2021/06/18 09:54:16;;;;;;;9.00;4.03;;;;;;;;;;5107686;28;20028;-69
2021/06/18 09:56:43;;;;;;;6.45;3.70;;;;;;;;;;5109446;28;20091;-70
2021/06/18 09:59:21;;;;;;;7.60;4.47;;;;;;;;;;5107959;28;20099;-69
2021/06/18 10:01:52;;;;;;;7.25;2.97;;;;;;;;;;5095084;28;20032;-69
2021/06/18 10:04:18;;;;;;;5.05;2.50;;;;;;;;;;5095451;28;20051;-69
2021/06/18 10:06:44;;;;;;;7.43;2.78;;;;;;;;;;5095476;28;20024;-69
2021/06/18 10:09:14;;;;;;;4.15;2.55;;;;;;;;;;5093645;28;20042;-69
2021/06/18 10:11:43;;;;;;;5.95;2.75;;;;;;;;;;5095282;28;20017;-69
2021/06/18 10:14:09;;;;;;;3.63;2.17;;;;;;;;;;5094907;28;20036;-68
2021/06/18 10:16:35;;;;;;;4.53;2.50;;;;;;;;;;5095411;28;20023;-68
2021/06/18 10:19:02;;;;;;;8.88;2.70;;;;;;;;;;5093824;28;20503;-68
2021/06/18 10:21:29;;;;;;;5.93;2.97;;;;;;;;;;5094748;28;20460;-68
2021/06/18 10:23:59;;;;;;;4.35;2.25;;;;;;;;;;5095099;28;20073;-69
2021/06/18 10:26:26;;;;;;;6.32;2.83;;;;;;;;;;5095088;28;20066;-69
2021/06/18 10:29:00;;;;;;;4.25;2.50;;;;;;;;;;5093286;28;20032;-69
2021/06/18 10:31:35;;;;;;;8.88;3.00;;;;;;;;;;5094985;28;20020;-69
2021/06/18 10:34:08;;;;;;;6.63;2.85;;;;;;;;;;5095065;28;20020;-70
2021/06/18 10:36:35;;;;;;;3.80;2.30;;;;;;;;;;5094808;28;20028;-69
2021/06/18 10:39:03;;;;;;;5.20;2.53;;;;;;;;;;5095024;28;20020;-69
2021/06/18 10:41:29;;;;;;;3.78;2.40;;;;;;;;;;5094770;28;20027;-69
2021/06/18 10:43:57;;;;;;;5.53;2.78;;;;;;;;;;5094042;28;20032;-69
2021/06/18 10:46:29;;;;;;;6.55;2.67;;;;;;;;;;5094598;28;20020;-68
2021/06/18 10:48:58;;;;;;;4.07;2.15;;;;;;;;;;5094362;28;20051;-69
2021/06/18 10:51:28;;;;;;;4.85;2.58;;;;;;;;;;5092941;28;20388;-69
2021/06/18 10:54:06;;;;;;;9.40;2.78;;;;;;;;;;5094481;28;20153;-69
2021/06/18 10:56:47;;;;;;;6.22;2.90;;;;;;;;;;5094648;28;20035;-69
2021/06/18 10:59:33;;;;;;;5.10;2.67;;;;;;;;;;5094628;28;20049;-69
2021/06/18 11:02:01;;;;;;;4.82;1.95;;;;;;;;;;5094316;28;20077;-68
2021/06/18 11:04:42;;;;;;;5.43;2.47;;;;;;;;;;5092539;28;20024;-68
2021/06/18 11:07:27;;;;;;;4.38;2.95;;;;;;;;;;5094322;28;20408;-69
2021/06/18 11:09:59;;;;;;;5.35;2.85;;;;;;;;;;5094232;28;20028;-69
2021/06/18 11:12:26;;;;;;;4.88;2.63;;;;;;;;;;5091554;28;20482;-69
2021/06/18 11:14:53;;;;;;;5.13;2.25;;;;;;;;;;5094219;28;20031;-69
2021/06/18 11:17:38;;;;;;;3.63;2.08;;;;;;;;;;5093862;28;20020;-68
2021/06/18 11:20:06;;;;;;;4.20;2.08;;;;;;;;;;5094120;28;20081;-69
2021/06/18 11:22:51;;;;;;;6.57;2.10;;;;;;;;;;5094240;28;20376;-69
2021/06/18 11:25:33;;;;;;;3.72;2.30;;;;;;;;;;5093573;28;20032;-69
2021/06/18 11:28:17;;;;;;;4.07;2.50;;;;;;;;;;5093736;28;20020;-69
2021/06/18 11:31:05;;;;;;;4.40;2.58;;;;;;;;;;5093911;28;20384;-69
2021/06/18 11:33:37;;;;;;;6.63;2.30;;;;;;;;;;5093461;28;20029;-69
2021/06/18 11:36:04;;;;;;;5.13;2.42;;;;;;;;;;5093937;28;20016;-69
2021/06/18 11:38:30;;;;;;;5.38;2.40;;;;;;;;;;5093500;28;20034;-69
2021/06/18 11:40:58;;;;;;;6.82;2.40;;;;;;;;;;5093728;28;20092;-69
2021/06/18 11:43:27;;;;;;;3.80;2.13;;;;;;;;;;5093591;28;20425;-69
2021/06/18 11:45:54;;;;;;;4.70;2.72;;;;;;;;;;5093237;28;20020;-69
2021/06/18 11:48:20;;;;;;;9.10;2.42;;;;;;;;;;5091963;28;20040;-69
2021/06/18 11:50:47;;;;;;;7.43;2.45;;;;;;;;;;5093475;28;20078;-68
2021/06/18 11:53:14;;;;;;;4.72;2.40;;;;;;;;;;5092953;28;20020;-69
2021/06/18 11:55:41;;;;;;;6.13;2.53;;;;;;;;;;5093449;28;20365;-69
2021/06/18 11:58:07;;;;;;;3.15;2.00;;;;;;;;;;5093587;28;20034;-69
2021/06/18 12:00:34;;;;;;;4.22;2.50;;;;;;;;;;5091760;28;20043;-68
2021/06/18 12:03:01;;;;;;;7.03;2.72;;;;;;;;;;5091931;28;20027;-68
2021/06/18 12:05:31;;;;;;;8.30;2.40;;;;;;;;;;5093197;28;20024;-68
2021/06/18 12:07:57;;;;;;;8.10;2.80;;;;;;;;;;5092732;28;20040;-68
2021/06/18 12:10:25;;;;;;;5.53;2.35;;;;;;;;;;5091778;28;20381;-68
2021/06/18 12:12:53;;;;;;;4.40;2.33;;;;;;;;;;5093132;28;20110;-70
2021/06/18 12:15:21;;;;;;;5.40;2.42;;;;;;;;;;5092784;28;20017;-68
2021/06/18 12:17:48;;;;;;;4.45;2.53;;;;;;;;;;5093080;28;20077;-68
2021/06/18 12:20:21;;;;;;;3.53;2.35;;;;;;;;;;5092995;28;20028;-68
2021/06/18 12:22:48;;;;;;;5.55;2.70;;;;;;;;;;5092322;28;20028;-68
2021/06/18 12:25:14;;;;;;;4.95;2.38;;;;;;;;;;5092929;28;20074;-68
2021/06/18 12:27:40;;;;;;;5.47;2.70;;;;;;;;;;5092465;28;20016;-68
2021/06/18 12:30:07;;;;;;;6.82;2.80;;;;;;;;;;5092840;28;20032;-68
2021/06/18 12:32:36;;;;;;;3.60;2.53;;;;;;;;;;5092967;28;20024;-68
2021/06/18 12:35:03;;;;;;;4.50;2.10;;;;;;;;;;5092610;28;20425;-68
2021/06/18 12:37:30;;;;;;;6.05;2.60;;;;;;;;;;5091581;28;20028;-68
2021/06/18 12:39:59;;;;;;;3.05;2.17;;;;;;;;;;5091688;28;20431;-69
2021/06/18 12:42:27;;;;;;;5.63;2.17;;;;;;;;;;5090985;28;20028;-69
2021/06/18 12:45:07;;;;;;;6.05;2.72;;;;;;;;;;5091386;28;20024;-70
2021/06/18 12:47:33;;;;;;;4.60;2.20;;;;;;;;;;5091154;28;20031;-69
2021/06/18 12:50:19;;;;;;;5.88;2.40;;;;;;;;;;5092566;28;20056;-69
2021/06/18 12:52:50;;;;;;;5.43;2.50;;;;;;;;;;5092647;28;20469;-69
2021/06/18 12:55:16;;;;;;;11.82;2.53;;;;;;;;;;5092836;28;20024;-69
2021/06/18 12:57:42;;;;;;;3.63;2.38;;;;;;;;;;5092123;28;20020;-69
2021/06/18 13:00:10;;;;;;;4.50;2.40;;;;;;;;;;5092459;28;20023;-69
2021/06/18 13:02:38;;;;;;;6.22;2.83;;;;;;;;;;5092512;28;20012;-68
2021/06/18 13:05:14;;;;;;;7.38;2.13;;;;;;;;;;5092049;28;20028;-68
2021/06/18 13:07:40;;;;;;;5.88;2.30;;;;;;;;;;5092266;28;20020;-68
2021/06/18 13:10:06;;;;;;;5.28;2.17;;;;;;;;;;5092101;28;20121;-68
2021/06/18 13:12:33;;;;;;;3.45;2.00;;;;;;;;;;5091320;28;20499;-68
2021/06/18 13:15:00;;;;;;;4.72;2.67;;;;;;;;;;5092383;28;20050;-70
2021/06/18 13:17:26;;;;;;;4.78;1.60;;;;;;;;;;5092008;28;20017;-68
2021/06/18 13:19:53;;;;;;;2.90;1.85;;;;;;;;;;5092332;28;20460;-69
2021/06/18 13:22:26;;;;;;;4.57;2.03;;;;;;;;;;5092447;28;20027;-69
2021/06/18 13:24:56;;;;;;;4.60;2.13;;;;;;;;;;5091959;28;20044;-69
2021/06/18 13:27:26;;;;;;;3.40;2.03;;;;;;;;;;5092333;28;20073;-69
2021/06/18 13:29:58;;;;;;;3.10;1.95;;;;;;;;;;5092443;28;20545;-69
2021/06/18 13:32:26;;;;;;;3.53;2.03;;;;;;;;;;5092035;28;20024;-70
2021/06/18 13:34:54;;;;;;;3.15;2.00;;;;;;;;;;5093037;28;20034;-69
2021/06/18 13:37:22;;;;;;;4.88;2.70;;;;;;;;;;5094672;28;20055;-69
2021/06/18 13:39:53;;;;;;;4.88;2.70;;;;;;;;;;5095639;28;20082;-69
2021/06/18 13:42:20;;;;;;;4.63;2.08;;;;;;;;;;5095981;28;20099;-69
2021/06/18 13:44:46;;;;;;;2.92;1.88;;;;;;;;;;5095992;28;20031;-69
2021/06/18 13:47:12;;;;;;;6.82;2.63;;;;;;;;;;5095449;28;20107;-69
2021/06/18 13:49:39;;;;;;;4.47;2.10;;;;;;;;;;5095764;28;20097;-69
2021/06/18 13:52:05;;;;;;;4.07;2.05;;;;;;;;;;5095519;28;20017;-70
2021/06/18 13:54:31;;;;;;;5.15;2.00;;;;;;;;;;5095682;28;20024;-69
2021/06/18 13:56:57;;;;;;;3.88;1.92;;;;;;;;;;5095700;28;20023;-69
2021/06/18 13:59:25;;;;;;;4.32;1.80;;;;;;;;;;5095336;28;20091;-69
2021/06/18 14:01:53;;;;;;;4.57;2.25;;;;;;;;;;5095589;28;20107;-70
2021/06/18 14:04:19;;;;;;;5.60;2.20;;;;;;;;;;5095471;28;20024;-69
2021/06/18 14:06:45;;;;;;;4.15;2.35;;;;;;;;;;5095187;28;20077;-69
2021/06/18 14:09:12;;;;;;;2.63;1.77;;;;;;;;;;5095373;28;20089;-69
2021/06/18 14:11:38;;;;;;;5.35;1.83;;;;;;;;;;5095628;28;20020;-69
2021/06/18 14:14:05;;;;;;;3.70;2.10;;;;;;;;;;5093693;28;20024;-69
2021/06/18 14:16:42;;;;;;;2.85;1.85;;;;;;;;;;5093907;28;20026;-69
2021/06/18 14:19:08;;;;;;;4.90;2.10;;;;;;;;;;5095248;28;20051;-69
2021/06/18 14:21:34;;;;;;;4.47;2.13;;;;;;;;;;5094706;28;20020;-69
2021/06/18 14:24:01;;;;;;;5.88;2.40;;;;;;;;;;5095166;28;20028;-69
2021/06/18 14:26:27;;;;;;;5.10;1.95;;;;;;;;;;5095077;28;20581;-69
2021/06/18 14:28:53;;;;;;;3.85;2.13;;;;;;;;;;5094704;28;20032;-69
2021/06/18 14:31:20;;;;;;;4.20;2.45;;;;;;;;;;5095229;28;20361;-69
2021/06/18 14:33:46;;;;;;;3.92;2.60;;;;;;;;;;5095020;28;20059;-69
2021/06/18 14:36:14;;;;;;;6.18;2.92;;;;;;;;;;5093223;28;20070;-69
2021/06/18 14:38:40;;;;;;;6.55;3.15;;;;;;;;;;5093538;28;20373;-70
2021/06/18 14:41:06;;;;;;;5.45;3.28;;;;;;;;;;5095180;28;20059;-69
2021/06/18 14:43:32;;;;;;;4.97;3.03;;;;;;;;;;5094434;28;20028;-69
2021/06/18 14:45:58;;;;;;;6.53;3.40;;;;;;;;;;5094682;28;20025;-69
2021/06/18 14:48:25;;;;;;;5.28;3.08;;;;;;;;;;5093958;28;20059;-69
2021/06/18 14:50:51;;;;;;;9.55;3.22;;;;;;;;;;5093454;28;20073;-69
2021/06/18 14:53:17;;;;;;;6.13;3.05;;;;;;;;;;5094686;28;20024;-69
2021/06/18 14:55:43;;;;;;;5.95;2.92;;;;;;;;;;5092906;28;20016;-69
2021/06/18 14:58:10;;;;;;;6.57;2.90;;;;;;;;;;5094476;28;20384;-69
2021/06/18 15:00:36;;;;;;;4.93;2.92;;;;;;;;;;5094544;28;20024;-69
2021/06/18 15:03:05;;;;;;;4.63;2.90;;;;;;;;;;5093985;28;20512;-69
2021/06/18 15:05:31;;;;;;;6.80;3.00;;;;;;;;;;5093015;28;20028;-70
2021/06/18 15:07:57;;;;;;;3.92;2.25;;;;;;;;;;5094346;28;20024;-69
2021/06/18 15:10:24;;;;;;;7.68;2.80;;;;;;;;;;5093963;28;20043;-69
2021/06/18 15:12:50;;;;;;;3.90;2.20;;;;;;;;;;5094534;28;20012;-69
2021/06/18 15:15:16;;;;;;;4.72;2.28;;;;;;;;;;5092730;28;20058;-67
2021/06/18 15:17:43;;;;;;;4.30;2.45;;;;;;;;;;5093722;28;20417;-68
2021/06/18 15:20:09;;;;;;;5.18;3.10;;;;;;;;;;5094149;28;20086;-68
2021/06/18 15:22:36;;;;;;;9.82;2.83;;;;;;;;;;5094117;28;20022;-68
2021/06/18 15:25:06;;;;;;;4.70;2.70;;;;;;;;;;5094249;28;20020;-69
2021/06/18 15:27:32;;;;;;;4.50;2.67;;;;;;;;;;5092591;28;20031;-68
2021/06/18 15:29:59;;;;;;;4.38;2.58;;;;;;;;;;5093902;28;20060;-68
2021/06/18 15:32:25;;;;;;;5.05;2.50;;;;;;;;;;5093759;28;20024;-68
2021/06/18 15:34:51;;;;;;;4.15;2.60;;;;;;;;;;5093831;28;20026;-69
2021/06/18 15:37:17;;;;;;;5.32;2.65;;;;;;;;;;5093603;28;20039;-69
2021/06/18 15:39:44;;;;;;;4.75;3.03;;;;;;;;;;5091700;28;20495;-68
2021/06/18 15:42:10;;;;;;;4.20;2.63;;;;;;;;;;5092418;28;20487;-68
2021/06/18 15:44:36;;;;;;;5.00;3.20;;;;;;;;;;5093177;28;20103;-68
2021/06/18 15:47:03;;;;;;;4.60;2.42;;;;;;;;;;5093506;28;20027;-69
2021/06/18 15:49:29;;;;;;;4.03;2.50;;;;;;;;;;5093288;28;20503;-69
2021/06/18 15:51:55;;;;;;;4.97;2.90;;;;;;;;;;5093240;28;20024;-69
2021/06/18 15:54:21;;;;;;;4.05;2.75;;;;;;;;;;5092147;28;20161;-69
2021/06/18 15:56:50;;;;;;;8.95;3.45;;;;;;;;;;5093441;28;20383;-69
2021/06/18 15:59:16;;;;;;;5.90;2.67;;;;;;;;;;5091101;28;20032;-69
2021/06/18 16:01:42;;;;;;;4.63;3.03;;;;;;;;;;5092022;28;20498;-70
2021/06/18 16:04:08;;;;;;;3.85;2.50;;;;;;;;;;5093286;28;20035;-69
2021/06/18 16:06:35;;;;;;;5.00;2.90;;;;;;;;;;5092810;28;20020;-69
2021/06/18 16:09:01;;;;;;;5.07;2.63;;;;;;;;;;5093146;28;20024;-70
2021/06/18 16:11:27;;;;;;;6.07;3.10;;;;;;;;;;5091985;28;20024;-69
2021/06/18 16:13:54;;;;;;;6.97;3.80;;;;;;;;;;5091623;28;20081;-69
2021/06/18 16:16:20;;;;;;;4.28;2.92;;;;;;;;;;5091741;28;20035;-69